createdAt,value
2019-02-14T00:01:55.387Z,35.95
2019-02-14T00:04:23.687Z,31.35
2019-02-14T00:06:51.995Z,30.12
2019-02-14T00:09:20.459Z,27.87
2019-02-14T00:11:48.773Z,30.55
2019-02-14T00:14:17.081Z,27.42
2019-02-14T00:16:45.404Z,30.20
2019-02-14T00:19:13.696Z,29.35
2019-02-14T00:21:42.009Z,30.92
2019-02-14T00:24:10.312Z,28.70
2019-02-14T00:26:38.631Z,29.82
2019-02-14T00:29:06.940Z,34.00
2019-02-14T00:31:35.274Z,30.45
2019-02-14T00:34:03.574Z,31.15
2019-02-14T00:36:31.895Z,38.00
2019-02-14T00:39:00.202Z,37.93
2019-02-14T00:41:28.516Z,34.30
2019-02-14T00:43:57.131Z,31.77
2019-02-14T00:46:25.712Z,35.95
2019-02-14T00:48:54.291Z,31.15
2019-02-14T00:51:22.890Z,31.90
2019-02-14T00:53:51.186Z,32.33
2019-02-14T00:56:19.855Z,35.50
2019-02-14T00:58:48.171Z,33.33
2019-02-14T01:01:16.476Z,26.57
2019-02-14T01:03:44.795Z,29.15
2019-02-14T01:06:13.349Z,27.20
2019-02-14T01:08:41.671Z,31.00
2019-02-14T01:11:09.974Z,25.00
2019-02-14T01:13:38.292Z,28.90
2019-02-14T01:16:06.587Z,25.83
2019-02-14T01:18:34.904Z,31.30
2019-02-14T01:21:03.524Z,30.15
2019-02-14T01:23:31.839Z,32.97
2019-02-14T01:26:00.138Z,30.50
2019-02-14T01:28:28.778Z,30.37
2019-02-14T01:30:57.092Z,26.87
2019-02-14T01:33:25.410Z,23.92
2019-02-14T01:35:53.704Z,21.15
2019-02-14T01:38:22.040Z,24.07
2019-02-14T01:40:50.674Z,19.57
2019-02-14T01:43:19.055Z,19.70
2019-02-14T01:46:01.614Z,18.30
2019-02-14T01:48:29.935Z,23.60
2019-02-14T01:50:58.501Z,19.17
2019-02-14T01:53:26.830Z,21.35
2019-02-14T01:55:55.119Z,19.62
2019-02-14T01:58:23.413Z,21.73
2019-02-14T02:00:51.737Z,16.97
2019-02-14T02:03:20.039Z,18.55
2019-02-14T02:05:50.897Z,20.60
2019-02-14T02:08:19.245Z,21.27
2019-02-14T02:10:47.559Z,21.53
2019-02-14T02:13:15.857Z,21.87
2019-02-14T02:15:44.185Z,19.42
2019-02-14T02:18:12.489Z,22.62
2019-02-14T02:20:40.802Z,22.03
2019-02-14T02:23:09.096Z,20.77
2019-02-14T02:25:37.490Z,17.98
2019-02-14T02:28:05.778Z,21.00
2019-02-14T02:30:34.070Z,20.90
2019-02-14T02:33:02.400Z,23.25
2019-02-14T02:35:30.698Z,21.17
2019-02-14T02:37:59.016Z,23.77
2019-02-14T02:40:27.323Z,26.00
2019-02-14T02:42:55.641Z,20.23
2019-02-14T02:45:23.928Z,20.23
2019-02-14T02:47:52.253Z,21.00
2019-02-14T02:50:20.562Z,18.82
2019-02-14T02:52:48.903Z,18.80
2019-02-14T02:55:17.185Z,20.62
2019-02-14T02:57:45.491Z,19.70
2019-02-14T03:00:17.065Z,20.90
2019-02-14T03:02:45.384Z,18.40
2019-02-14T03:05:15.355Z,21.75
2019-02-14T03:07:43.638Z,20.57
2019-02-14T03:10:13.501Z,24.82
2019-02-14T03:12:41.791Z,18.67
2019-02-14T03:15:13.007Z,14.95
2019-02-14T03:17:41.366Z,17.05
2019-02-14T03:20:11.728Z,20.68
2019-02-14T03:22:40.027Z,19.87
2019-02-14T03:25:14.140Z,16.00
2019-02-14T03:27:42.796Z,16.85
2019-02-14T03:30:15.819Z,15.77
2019-02-14T03:32:44.454Z,17.93
2019-02-14T03:35:13.033Z,20.12
2019-02-14T03:37:41.623Z,18.23
2019-02-14T03:40:13.872Z,16.90
2019-02-14T03:42:42.830Z,15.20
2019-02-14T03:45:19.850Z,16.07
2019-02-14T03:47:48.173Z,16.32
2019-02-14T03:50:16.467Z,14.90
2019-02-14T03:52:45.114Z,15.48
2019-02-14T03:55:13.490Z,18.98
2019-02-14T03:57:41.813Z,15.18
2019-02-14T04:00:17.606Z,15.40
2019-02-14T04:02:45.922Z,15.48
2019-02-14T04:05:14.233Z,16.52
2019-02-14T04:07:42.865Z,17.00
2019-02-14T04:10:13.350Z,14.35
2019-02-14T04:12:41.689Z,17.12
2019-02-14T04:15:12.981Z,18.52
2019-02-14T04:17:41.286Z,19.45
2019-02-14T04:20:10.845Z,16.45
2019-02-14T04:22:39.148Z,20.85
2019-02-14T04:25:09.101Z,15.60
2019-02-14T04:27:37.401Z,18.45
2019-02-14T04:30:09.117Z,18.37
2019-02-14T04:32:37.443Z,18.50
2019-02-14T04:35:06.322Z,15.85
2019-02-14T04:37:34.959Z,16.05
2019-02-14T04:40:03.960Z,14.40
2019-02-14T04:42:32.264Z,18.00
2019-02-14T04:45:00.589Z,16.23
2019-02-14T04:47:28.904Z,16.93
2019-02-14T04:49:57.470Z,18.45
2019-02-14T04:52:26.059Z,18.10
2019-02-14T04:54:54.390Z,17.73
2019-02-14T04:57:23.057Z,17.55
2019-02-14T04:59:51.360Z,15.23
2019-02-14T05:02:19.652Z,16.33
2019-02-14T05:04:47.963Z,19.42
2019-02-14T05:07:16.269Z,19.15
2019-02-14T05:09:44.921Z,16.10
2019-02-14T05:12:13.233Z,20.10
2019-02-14T05:14:41.549Z,19.15
2019-02-14T05:17:10.143Z,16.90
2019-02-14T05:19:38.447Z,20.20
2019-02-14T05:22:06.766Z,20.97
2019-02-14T05:24:35.381Z,18.40
2019-02-14T05:27:03.698Z,14.85
2019-02-14T05:29:31.984Z,22.07
2019-02-14T05:32:00.282Z,18.37
2019-02-14T05:34:28.582Z,18.23
2019-02-14T05:36:56.882Z,17.40
2019-02-14T05:39:25.469Z,18.90
2019-02-14T05:41:53.743Z,15.72
2019-02-14T05:44:22.417Z,16.10
2019-02-14T05:46:50.720Z,22.60
2019-02-14T05:49:19.041Z,18.80
2019-02-14T05:51:47.355Z,18.20
2019-02-14T05:54:15.660Z,21.90
2019-02-14T05:56:43.960Z,18.77
2019-02-14T05:59:12.298Z,19.07
2019-02-14T06:01:40.590Z,20.65
2019-02-14T06:04:08.959Z,20.23
2019-02-14T06:06:37.256Z,16.37
2019-02-14T06:09:06.715Z,20.15
2019-02-14T06:11:35.303Z,18.75
2019-02-14T06:14:03.602Z,123.45
2019-02-14T06:16:31.920Z,23.90
2019-02-14T06:19:00.229Z,19.40
2019-02-14T06:21:28.560Z,16.35
2019-02-14T06:23:56.847Z,14.83
2019-02-14T06:26:25.193Z,17.75
2019-02-14T06:28:53.494Z,19.62
2019-02-14T06:31:21.824Z,20.37
2019-02-14T06:33:50.140Z,19.40
2019-02-14T06:36:18.476Z,18.00
2019-02-14T06:38:46.776Z,17.67
2019-02-14T06:41:15.085Z,18.12
2019-02-14T06:43:43.707Z,18.45
2019-02-14T06:46:12.031Z,18.07
2019-02-14T06:48:40.335Z,20.48
2019-02-14T06:51:08.718Z,18.73
2019-02-14T06:53:37.019Z,21.77
2019-02-14T06:56:05.358Z,18.25
2019-02-14T06:58:33.640Z,19.73
2019-02-14T07:01:02.262Z,18.67
2019-02-14T07:03:30.843Z,19.05
2019-02-14T07:05:59.154Z,17.37
2019-02-14T07:08:27.475Z,18.40
2019-02-14T07:10:57.616Z,17.45
2019-02-14T07:13:26.060Z,17.45
2019-02-14T07:15:54.369Z,15.95
2019-02-14T07:18:22.679Z,18.87
2019-02-14T07:20:51.335Z,18.42
2019-02-14T07:23:19.662Z,22.60
2019-02-14T07:25:47.963Z,15.38
2019-02-14T07:28:16.272Z,15.55
2019-02-14T07:30:44.573Z,17.62
2019-02-14T07:33:12.974Z,15.63
2019-02-14T07:35:41.522Z,15.50
2019-02-14T07:38:10.191Z,14.30
2019-02-14T07:40:38.735Z,16.75
2019-02-14T07:43:07.349Z,18.67
2019-02-14T07:45:35.676Z,15.93
2019-02-14T07:48:03.998Z,20.48
2019-02-14T07:50:32.589Z,16.40
2019-02-14T07:53:00.891Z,15.75
2019-02-14T07:55:29.202Z,18.50
2019-02-14T07:57:57.509Z,16.45
2019-02-14T08:00:25.837Z,16.85
2019-02-14T08:02:54.136Z,18.30
2019-02-14T08:05:22.450Z,13.73
2019-02-14T08:07:50.743Z,17.65
2019-02-14T08:10:19.858Z,15.50
2019-02-14T08:12:48.243Z,20.80
2019-02-14T08:15:16.552Z,17.00
2019-02-14T08:17:44.861Z,16.05
2019-02-14T08:20:18.024Z,18.48
2019-02-14T08:22:46.661Z,17.95
2019-02-14T08:25:14.960Z,13.93
2019-02-14T08:27:43.261Z,17.42
2019-02-14T08:30:19.334Z,13.13
2019-02-14T08:32:47.655Z,18.07
2019-02-14T08:35:16.215Z,21.17
2019-02-14T08:37:45.958Z,23.98
2019-02-14T08:40:29.660Z,22.52
2019-02-14T08:42:58.657Z,19.42
2019-02-14T08:45:27.538Z,18.17
2019-02-14T08:47:55.868Z,18.05
2019-02-14T08:50:24.168Z,17.80
2019-02-14T08:52:52.487Z,20.05
2019-02-14T08:55:20.780Z,17.70
2019-02-14T08:57:49.435Z,16.30
2019-02-14T09:00:18.249Z,17.60
2019-02-14T09:02:46.562Z,14.50
2019-02-14T09:05:17.887Z,15.98
2019-02-14T09:07:54.350Z,19.15
2019-02-14T09:10:17.173Z,19.23
2019-02-14T09:12:45.488Z,15.63
2019-02-14T09:15:14.734Z,18.62
2019-02-14T09:17:43.335Z,14.53
2019-02-14T09:20:17.163Z,14.25
2019-02-14T09:22:45.480Z,16.70
2019-02-14T09:25:14.086Z,14.95
2019-02-14T09:27:42.388Z,14.63
2019-02-14T09:30:12.325Z,14.85
2019-02-14T09:32:40.976Z,15.63
2019-02-14T09:35:10.488Z,15.88
2019-02-14T09:37:39.065Z,17.63
2019-02-14T09:40:12.859Z,16.75
2019-02-14T09:42:41.186Z,17.40
2019-02-14T09:45:12.036Z,14.80
2019-02-14T09:47:40.335Z,21.25
2019-02-14T09:50:10.971Z,18.92
2019-02-14T09:52:40.282Z,18.87
2019-02-14T09:55:10.817Z,16.37
2019-02-14T09:57:39.637Z,17.37
2019-02-14T10:00:18.842Z,16.45
2019-02-14T10:02:47.151Z,14.25
2019-02-14T10:05:16.132Z,14.85
2019-02-14T10:07:44.446Z,17.15
2019-02-14T10:10:18.393Z,13.95
2019-02-14T10:12:46.702Z,14.73
2019-02-14T10:15:15.021Z,13.20
2019-02-14T10:17:43.326Z,14.38
2019-02-14T10:20:14.616Z,12.70
2019-02-14T10:22:43.257Z,14.68
2019-02-14T10:25:12.420Z,11.07
2019-02-14T10:27:40.816Z,13.85
2019-02-14T10:30:17.835Z,10.40
2019-02-14T10:32:46.496Z,13.30
2019-02-14T10:35:14.805Z,11.35
2019-02-14T10:37:43.558Z,10.17
2019-02-14T10:40:16.228Z,13.70
2019-02-14T10:42:44.626Z,10.30
2019-02-14T10:45:17.600Z,12.23
2019-02-14T10:47:45.940Z,12.15
2019-02-14T10:50:14.565Z,13.80
2019-02-14T10:52:43.289Z,13.53
2019-02-14T10:55:13.595Z,14.68
2019-02-14T10:57:41.900Z,14.68
2019-02-14T11:00:24.308Z,12.15
2019-02-14T11:02:53.166Z,9.73
2019-02-14T11:05:21.448Z,15.72
2019-02-14T11:07:50.120Z,15.70
2019-02-14T11:10:18.405Z,13.18
2019-02-14T11:12:46.732Z,14.05
2019-02-14T11:15:24.166Z,12.53
2019-02-14T11:17:52.550Z,12.60
2019-02-14T11:20:20.853Z,15.63
2019-02-14T11:22:49.531Z,13.58
2019-02-14T11:25:26.375Z,10.03
2019-02-14T11:27:54.660Z,10.43
2019-02-14T11:30:22.970Z,12.37
2019-02-14T11:32:51.271Z,8.30
2019-02-14T11:35:19.579Z,13.53
2019-02-14T11:37:48.178Z,8.40
2019-02-14T11:40:16.608Z,12.40
2019-02-14T11:42:44.884Z,8.68
2019-02-14T11:45:18.674Z,6.35
2019-02-14T11:47:46.970Z,6.50
2019-02-14T11:50:15.265Z,5.70
2019-02-14T11:52:43.555Z,10.43
2019-02-14T11:55:12.243Z,6.70
2019-02-14T11:57:40.825Z,5.40
2019-02-14T12:00:13.974Z,10.15
2019-02-14T12:02:42.253Z,9.90
2019-02-14T12:05:10.539Z,8.00
2019-02-14T12:07:39.158Z,6.53
2019-02-14T12:10:13.361Z,6.70
2019-02-14T12:12:40.231Z,10.15
2019-02-14T12:15:11.427Z,7.12
2019-02-14T12:17:39.813Z,9.23
2019-02-14T12:20:12.875Z,7.10
2019-02-14T12:22:46.550Z,5.85
2019-02-14T12:25:19.914Z,6.55
2019-02-14T12:27:48.867Z,11.93
2019-02-14T12:30:17.241Z,9.20
2019-02-14T12:32:45.522Z,6.20
2019-02-14T12:35:13.843Z,5.90
2019-02-14T12:37:42.390Z,7.35
2019-02-14T12:40:14.621Z,5.95
2019-02-14T12:42:42.935Z,6.12
2019-02-14T12:47:44.305Z,9.75
2019-02-14T12:50:12.622Z,7.92
2019-02-14T12:52:40.914Z,11.90
2019-02-14T12:55:09.283Z,6.27
2019-02-14T12:57:37.583Z,10.18
2019-02-14T13:00:17.913Z,4.30
2019-02-14T13:02:46.208Z,6.97
2019-02-14T13:05:14.514Z,6.25
2019-02-14T13:07:42.823Z,5.40
2019-02-14T13:10:14.557Z,8.65
2019-02-14T13:12:43.039Z,4.55
2019-02-14T13:15:16.890Z,8.38
2019-02-14T13:17:45.215Z,5.42
2019-02-14T13:20:13.862Z,4.60
2019-02-14T13:22:42.180Z,5.72
2019-02-14T13:25:11.873Z,7.85
2019-02-14T13:27:40.538Z,7.35
2019-02-14T13:30:17.704Z,9.88
2019-02-14T13:32:46.065Z,8.03
2019-02-14T13:35:14.319Z,5.00
2019-02-14T13:37:42.634Z,8.33
2019-02-14T13:40:11.010Z,4.33
2019-02-14T13:42:39.598Z,3.55
2019-02-14T13:45:11.074Z,10.48
2019-02-14T13:47:39.392Z,9.10
2019-02-14T13:50:10.227Z,6.62
2019-02-14T13:52:38.538Z,6.37
2019-02-14T13:55:09.262Z,6.92
2019-02-14T13:57:37.544Z,8.93
2019-02-14T14:00:14.890Z,4.95
2019-02-14T14:02:43.191Z,7.25
2019-02-14T14:05:11.541Z,7.17
2019-02-14T14:07:40.704Z,9.50
2019-02-14T14:10:10.116Z,6.62
2019-02-14T14:12:38.397Z,5.72
2019-02-14T14:15:09.451Z,8.43
2019-02-14T14:17:37.766Z,6.92
2019-02-14T14:20:07.727Z,7.20
2019-02-14T14:22:36.064Z,5.97
2019-02-14T14:25:05.795Z,4.87
2019-02-14T14:27:34.115Z,6.40
2019-02-14T14:30:02.776Z,7.72
2019-02-14T14:32:31.107Z,6.00
2019-02-14T14:34:59.394Z,7.33
2019-02-14T14:37:27.701Z,4.92
2019-02-14T14:39:56.017Z,6.42
2019-02-14T14:42:34.852Z,7.33
2019-02-14T14:45:04.807Z,6.20
2019-02-14T14:47:33.394Z,5.53
2019-02-14T14:50:02.209Z,5.50
2019-02-14T14:52:30.517Z,5.80
2019-02-14T14:54:59.144Z,7.28
2019-02-14T14:57:27.480Z,5.20
2019-02-14T14:59:56.135Z,5.50
2019-02-14T15:02:24.611Z,9.40
2019-02-14T15:04:52.905Z,4.55
2019-02-14T15:07:21.547Z,4.53
2019-02-14T15:09:57.199Z,5.67
2019-02-14T15:12:19.895Z,7.58
2019-02-14T15:14:48.450Z,3.95
2019-02-14T15:17:16.753Z,5.93
2019-02-14T15:19:45.079Z,3.80
2019-02-14T15:22:13.371Z,6.15
2019-02-14T15:24:41.674Z,5.45
2019-02-14T15:27:09.963Z,5.92
2019-02-14T15:29:38.587Z,12.55
2019-02-14T15:32:07.169Z,7.03
2019-02-14T15:34:35.495Z,4.75
2019-02-14T15:37:03.794Z,7.00
2019-02-14T15:39:32.113Z,5.50
2019-02-14T15:42:00.419Z,5.22
2019-02-14T15:44:28.730Z,6.78
2019-02-14T15:46:57.034Z,5.03
2019-02-14T15:49:25.513Z,5.07
2019-02-14T15:51:53.831Z,4.30
2019-02-14T15:54:22.114Z,8.25
2019-02-14T15:56:51.417Z,6.05
2019-02-14T15:59:21.048Z,11.75
2019-02-14T16:01:49.864Z,5.57
2019-02-14T16:04:18.170Z,10.40
2019-02-14T16:06:46.492Z,8.75
2019-02-14T16:09:16.526Z,5.47
2019-02-14T16:11:44.925Z,9.00
2019-02-14T16:14:13.231Z,10.63
2019-02-14T16:16:43.285Z,8.93
2019-02-14T16:19:13.152Z,7.85
2019-02-14T16:21:41.470Z,7.95
2019-02-14T16:24:09.806Z,8.20
2019-02-14T16:26:38.895Z,20.05
2019-02-14T16:29:07.563Z,11.03
2019-02-14T16:31:36.491Z,19.97
2019-02-14T16:34:04.809Z,15.53
2019-02-14T16:36:33.412Z,13.85
2019-02-14T16:39:02.209Z,20.52
2019-02-14T16:41:30.497Z,23.18
2019-02-14T16:43:58.805Z,14.80
2019-02-14T16:46:27.107Z,12.45
2019-02-14T16:48:55.450Z,11.90
2019-02-14T16:51:23.986Z,14.65
2019-02-14T16:53:52.295Z,17.45
2019-02-14T16:56:20.590Z,14.13
2019-02-14T16:58:48.947Z,14.15
2019-02-14T17:01:17.357Z,16.57
2019-02-14T17:03:45.641Z,15.70
2019-02-14T17:06:13.967Z,14.78
2019-02-14T17:08:42.255Z,17.57
2019-02-14T17:11:10.581Z,15.78
2019-02-14T17:13:38.881Z,19.23
2019-02-14T17:16:07.186Z,16.48
2019-02-14T17:18:35.755Z,15.78
2019-02-14T17:21:04.554Z,16.50
2019-02-14T17:23:32.844Z,17.20
2019-02-14T17:26:01.160Z,14.05
2019-02-14T17:28:29.777Z,17.00
2019-02-14T17:30:58.354Z,21.80
2019-02-14T17:33:26.688Z,18.27
2019-02-14T17:35:55.425Z,17.95
2019-02-14T17:38:23.737Z,20.48
2019-02-14T17:40:52.028Z,19.45
2019-02-14T17:43:20.687Z,17.20
2019-02-14T17:45:48.985Z,14.73
2019-02-14T17:48:17.294Z,17.23
2019-02-14T17:50:45.579Z,17.23
2019-02-14T17:53:13.921Z,13.95
2019-02-14T17:55:42.215Z,13.80
2019-02-14T17:58:10.532Z,14.77
2019-02-14T18:00:40.702Z,12.18
2019-02-14T18:03:09.001Z,11.22
2019-02-14T18:05:37.624Z,11.40
2019-02-14T18:08:05.918Z,13.30
2019-02-14T18:10:34.245Z,13.10
2019-02-14T18:13:02.864Z,15.40
2019-02-14T18:15:31.178Z,15.32
2019-02-14T18:17:59.816Z,15.63
2019-02-14T18:20:28.122Z,14.65
2019-02-14T18:22:56.408Z,12.85
2019-02-14T18:25:25.061Z,15.83
2019-02-14T18:27:53.456Z,11.85
2019-02-14T18:30:21.763Z,12.58
2019-02-14T18:32:50.398Z,13.28
2019-02-14T18:35:18.680Z,13.25
2019-02-14T18:37:47.008Z,14.68
2019-02-14T18:40:15.372Z,16.17
2019-02-14T18:42:45.844Z,22.93
2019-02-14T18:45:15.577Z,20.72
2019-02-14T18:47:43.904Z,21.95
2019-02-14T18:50:13.274Z,22.75
2019-02-14T18:52:41.582Z,24.60
2019-02-14T18:55:11.041Z,26.05
2019-02-14T18:57:39.365Z,25.65
2019-02-14T19:00:16.153Z,27.30
2019-02-14T19:02:44.446Z,21.15
2019-02-14T19:05:13.134Z,25.48
2019-02-14T19:07:41.561Z,22.27
2019-02-14T19:10:12.888Z,18.67
2019-02-14T19:12:41.547Z,20.57
2019-02-14T19:15:11.710Z,18.25
2019-02-14T19:17:40.017Z,27.17
2019-02-14T19:20:12.418Z,22.77
2019-02-14T19:22:41.863Z,19.20
2019-02-14T19:25:10.356Z,18.35
2019-02-14T19:27:38.671Z,18.05
2019-02-14T19:30:11.935Z,16.30
2019-02-14T19:32:40.311Z,25.35
2019-02-14T19:35:09.396Z,35.43
2019-02-14T19:37:37.707Z,27.80
2019-02-14T19:40:08.047Z,26.90
2019-02-14T19:42:36.619Z,26.80
2019-02-14T19:45:10.198Z,18.65
2019-02-14T19:47:38.515Z,14.98
2019-02-14T19:50:09.471Z,17.40
2019-02-14T19:52:37.757Z,18.60
2019-02-14T19:55:08.509Z,15.90
2019-02-14T19:57:36.885Z,11.20
2019-02-14T20:00:08.359Z,14.63
2019-02-14T20:02:36.670Z,13.30
2019-02-14T20:05:06.210Z,14.53
2019-02-14T20:07:34.693Z,18.83
2019-02-14T20:10:03.353Z,13.50
2019-02-14T20:12:31.936Z,14.80
2019-02-14T20:15:00.435Z,16.20
2019-02-14T20:17:29.212Z,16.63
2019-02-14T20:19:57.657Z,15.15
2019-02-14T20:22:25.999Z,15.27
2019-02-14T20:24:55.815Z,15.18
2019-02-14T20:27:24.441Z,17.83
2019-02-14T20:29:52.770Z,16.05
2019-02-14T20:32:21.080Z,16.17
2019-02-14T20:34:49.651Z,13.03
2019-02-14T20:37:18.275Z,14.90
2019-02-14T20:39:46.578Z,17.27
2019-02-14T20:42:14.883Z,17.60
2019-02-14T20:44:43.193Z,15.85
2019-02-14T20:47:11.484Z,14.33
2019-02-14T20:49:39.807Z,15.78
2019-02-14T20:52:08.441Z,15.28
2019-02-14T20:54:37.133Z,18.67
2019-02-14T20:57:05.416Z,20.57
2019-02-14T20:59:33.982Z,21.65
2019-02-14T21:02:02.309Z,26.63
2019-02-14T21:04:30.621Z,24.47
2019-02-14T21:06:58.977Z,25.05
2019-02-14T21:09:27.292Z,30.23
2019-02-14T21:11:55.617Z,29.82
2019-02-14T21:14:24.250Z,22.15
2019-02-14T21:16:52.590Z,27.70
2019-02-14T21:19:20.884Z,24.70
2019-02-14T21:21:49.191Z,22.10
2019-02-14T21:24:17.508Z,23.47
2019-02-14T21:26:45.828Z,20.90
2019-02-14T21:29:14.451Z,20.65
2019-02-14T21:31:42.754Z,14.25
2019-02-14T21:34:11.030Z,14.83
2019-02-14T21:36:39.345Z,12.68
2019-02-14T21:39:07.659Z,11.80
2019-02-14T21:41:36.069Z,12.85
2019-02-14T21:44:04.441Z,14.38
2019-02-14T21:46:32.727Z,14.78
2019-02-14T21:49:01.099Z,18.48
2019-02-14T21:51:29.406Z,21.33
2019-02-14T21:53:57.725Z,19.55
2019-02-14T21:56:26.032Z,20.25
2019-02-14T21:58:54.346Z,18.82
2019-02-14T22:01:24.512Z,17.60
2019-02-14T22:03:52.830Z,12.80
2019-02-14T22:06:21.145Z,15.25
2019-02-14T22:08:49.485Z,17.90
2019-02-14T22:11:17.793Z,11.37
2019-02-14T22:13:46.128Z,15.90
2019-02-14T22:16:14.755Z,12.80
2019-02-14T22:18:43.327Z,14.55
2019-02-14T22:21:12.014Z,14.80
2019-02-14T22:23:40.612Z,16.02
2019-02-14T22:26:08.931Z,11.93
2019-02-14T22:28:37.231Z,13.50
2019-02-14T22:31:05.587Z,11.90
2019-02-14T22:33:34.206Z,12.73
2019-02-14T22:36:02.520Z,12.73
2019-02-14T22:38:30.822Z,11.75
2019-02-14T22:40:59.131Z,12.88
2019-02-14T22:43:27.441Z,9.93
2019-02-14T22:45:55.758Z,10.70
2019-02-14T22:48:24.061Z,11.57
2019-02-14T22:50:52.371Z,8.95
2019-02-14T22:53:20.927Z,11.22
2019-02-14T22:55:49.261Z,9.75
2019-02-14T22:58:17.558Z,14.65
2019-02-14T23:00:50.050Z,16.40
2019-02-14T23:03:18.353Z,34.65
2019-02-14T23:05:47.030Z,21.62
2019-02-14T23:08:15.331Z,19.10
2019-02-14T23:10:43.645Z,16.60
2019-02-14T23:13:11.965Z,17.40
2019-02-14T23:15:40.544Z,19.25
2019-02-14T23:18:08.857Z,13.10
2019-02-14T23:20:37.168Z,14.20
2019-02-14T23:23:05.479Z,12.58
2019-02-14T23:25:33.787Z,13.45
2019-02-14T23:28:02.089Z,16.30
2019-02-14T23:30:30.391Z,9.70
2019-02-14T23:32:58.994Z,9.48
2019-02-14T23:35:27.294Z,13.62
2019-02-14T23:37:55.607Z,8.53
2019-02-14T23:40:23.908Z,8.68
2019-02-14T23:42:52.220Z,12.15
2019-02-14T23:45:20.518Z,10.25
2019-02-14T23:47:48.810Z,8.13
2019-02-14T23:50:17.195Z,10.10
2019-02-14T23:52:45.498Z,13.40
2019-02-14T23:55:13.817Z,12.53
2019-02-14T23:57:42.470Z,11.90
